sensor_id;sensor_type;location;lat;lon;timestamp;P1;durP1;ratioP1;P2;durP2;ratioP2
16385;SDS011;8302;51.154;4.456;2023-05-10T00:01:16;1.65;;;1.02;;
16385;SDS011;8302;51.154;4.456;2023-05-10T00:03:44;0.73;;;0.63;;
16385;SDS011;8302;51.154;4.456;2023-05-10T00:06:11;0.75;;;0.60;;
16385;SDS011;8302;51.154;4.456;2023-05-10T00:08:39;0.75;;;0.65;;
16385;SDS011;8302;51.154;4.456;2023-05-10T00:11:07;1.45;;;0.80;;
16385;SDS011;8302;51.154;4.456;2023-05-10T00:13:36;1.85;;;0.85;;
16385;SDS011;8302;51.154;4.456;2023-05-10T00:16:04;0.70;;;0.63;;
16385;SDS011;8302;51.154;4.456;2023-05-10T00:18:32;0.88;;;0.82;;
16385;SDS011;8302;51.154;4.456;2023-05-10T00:21:00;0.50;;;0.45;;
16385;SDS011;8302;51.154;4.456;2023-05-10T00:23:27;1.08;;;0.60;;
16385;SDS011;8302;51.154;4.456;2023-05-10T00:25:55;2.33;;;1.15;;
16385;SDS011;8302;51.154;4.456;2023-05-10T00:28:23;1.63;;;0.82;;
16385;SDS011;8302;51.154;4.456;2023-05-10T00:30:52;2.05;;;0.90;;
16385;SDS011;8302;51.154;4.456;2023-05-10T00:33:20;0.70;;;0.70;;
16385;SDS011;8302;51.154;4.456;2023-05-10T00:35:47;0.95;;;0.90;;
16385;SDS011;8302;51.154;4.456;2023-05-10T00:38:15;0.68;;;0.55;;
16385;SDS011;8302;51.154;4.456;2023-05-10T00:40:43;0.95;;;0.63;;
16385;SDS011;8302;51.154;4.456;2023-05-10T00:43:18;1.73;;;1.05;;
16385;SDS011;8302;51.154;4.456;2023-05-10T00:45:46;2.38;;;1.05;;
16385;SDS011;8302;51.154;4.456;2023-05-10T00:48:16;0.50;;;0.45;;
16385;SDS011;8302;51.154;4.456;2023-05-10T00:50:43;1.95;;;1.13;;
16385;SDS011;8302;51.154;4.456;2023-05-10T00:53:11;0.80;;;0.80;;
16385;SDS011;8302;51.154;4.456;2023-05-10T00:55:39;0.57;;;0.38;;
16385;SDS011;8302;51.154;4.456;2023-05-10T00:58:07;1.15;;;1.05;;
16385;SDS011;8302;51.154;4.456;2023-05-10T01:00:34;0.55;;;0.55;;
16385;SDS011;8302;51.154;4.456;2023-05-10T01:03:03;1.65;;;1.30;;
16385;SDS011;8302;51.154;4.456;2023-05-10T01:05:33;0.73;;;0.73;;
16385;SDS011;8302;51.154;4.456;2023-05-10T01:08:01;0.77;;;0.65;;
16385;SDS011;8302;51.154;4.456;2023-05-10T01:10:29;0.63;;;0.60;;
16385;SDS011;8302;51.154;4.456;2023-05-10T01:12:57;1.38;;;1.02;;
16385;SDS011;8302;51.154;4.456;2023-05-10T01:15:26;2.58;;;1.33;;
16385;SDS011;8302;51.154;4.456;2023-05-10T01:17:54;0.82;;;0.50;;
16385;SDS011;8302;51.154;4.456;2023-05-10T01:20:23;0.88;;;0.82;;
16385;SDS011;8302;51.154;4.456;2023-05-10T01:23:04;2.85;;;1.20;;
16385;SDS011;8302;51.154;4.456;2023-05-10T01:25:42;2.08;;;1.00;;
16385;SDS011;8302;51.154;4.456;2023-05-10T01:28:23;1.65;;;1.38;;
16385;SDS011;8302;51.154;4.456;2023-05-10T01:31:08;1.50;;;1.13;;
16385;SDS011;8302;51.154;4.456;2023-05-10T01:33:47;3.65;;;1.40;;
16385;SDS011;8302;51.154;4.456;2023-05-10T01:36:21;1.10;;;0.80;;
16385;SDS011;8302;51.154;4.456;2023-05-10T01:38:53;1.10;;;0.85;;
16385;SDS011;8302;51.154;4.456;2023-05-10T01:41:25;4.03;;;1.52;;
16385;SDS011;8302;51.154;4.456;2023-05-10T01:43:55;0.85;;;0.85;;
16385;SDS011;8302;51.154;4.456;2023-05-10T01:46:27;0.73;;;0.70;;
16385;SDS011;8302;51.154;4.456;2023-05-10T01:48:57;0.63;;;0.60;;
16385;SDS011;8302;51.154;4.456;2023-05-10T01:51:31;1.30;;;1.10;;
16385;SDS011;8302;51.154;4.456;2023-05-10T01:54:04;1.13;;;1.00;;
16385;SDS011;8302;51.154;4.456;2023-05-10T01:56:33;1.27;;;1.00;;
16385;SDS011;8302;51.154;4.456;2023-05-10T01:59:02;1.08;;;0.63;;
16385;SDS011;8302;51.154;4.456;2023-05-10T02:01:33;1.05;;;0.73;;
16385;SDS011;8302;51.154;4.456;2023-05-10T02:04:02;1.52;;;1.17;;
16385;SDS011;8302;51.154;4.456;2023-05-10T02:06:30;2.33;;;1.13;;
16385;SDS011;8302;51.154;4.456;2023-05-10T02:08:58;0.47;;;0.47;;
16385;SDS011;8302;51.154;4.456;2023-05-10T02:11:29;1.73;;;1.17;;
16385;SDS011;8302;51.154;4.456;2023-05-10T02:13:57;0.70;;;0.55;;
16385;SDS011;8302;51.154;4.456;2023-05-10T02:16:27;1.10;;;1.00;;
16385;SDS011;8302;51.154;4.456;2023-05-10T02:18:58;3.50;;;0.90;;
16385;SDS011;8302;51.154;4.456;2023-05-10T02:21:28;1.42;;;0.98;;
16385;SDS011;8302;51.154;4.456;2023-05-10T02:23:57;2.75;;;1.15;;
16385;SDS011;8302;51.154;4.456;2023-05-10T02:26:27;1.33;;;0.93;;
16385;SDS011;8302;51.154;4.456;2023-05-10T02:28:56;1.05;;;0.88;;
16385;SDS011;8302;51.154;4.456;2023-05-10T02:31:24;1.35;;;1.25;;
16385;SDS011;8302;51.154;4.456;2023-05-10T02:33:52;3.03;;;0.82;;
16385;SDS011;8302;51.154;4.456;2023-05-10T02:36:21;1.08;;;0.70;;
16385;SDS011;8302;51.154;4.456;2023-05-10T02:38:51;0.75;;;0.75;;
16385;SDS011;8302;51.154;4.456;2023-05-10T02:41:19;0.63;;;0.63;;
16385;SDS011;8302;51.154;4.456;2023-05-10T02:43:49;0.90;;;0.90;;
16385;SDS011;8302;51.154;4.456;2023-05-10T02:46:18;1.10;;;0.50;;
16385;SDS011;8302;51.154;4.456;2023-05-10T02:48:46;2.58;;;0.95;;
16385;SDS011;8302;51.154;4.456;2023-05-10T02:51:13;0.77;;;0.75;;
16385;SDS011;8302;51.154;4.456;2023-05-10T02:53:44;1.85;;;0.90;;
16385;SDS011;8302;51.154;4.456;2023-05-10T02:56:15;3.45;;;1.98;;
16385;SDS011;8302;51.154;4.456;2023-05-10T02:58:47;1.67;;;0.95;;
16385;SDS011;8302;51.154;4.456;2023-05-10T03:01:15;1.13;;;1.02;;
16385;SDS011;8302;51.154;4.456;2023-05-10T03:03:43;1.40;;;0.90;;
16385;SDS011;8302;51.154;4.456;2023-05-10T03:06:11;1.20;;;1.00;;
16385;SDS011;8302;51.154;4.456;2023-05-10T03:08:38;0.88;;;0.70;;
16385;SDS011;8302;51.154;4.456;2023-05-10T03:11:16;0.55;;;0.55;;
16385;SDS011;8302;51.154;4.456;2023-05-10T03:13:52;4.20;;;1.55;;
16385;SDS011;8302;51.154;4.456;2023-05-10T03:16:24;1.08;;;0.90;;
16385;SDS011;8302;51.154;4.456;2023-05-10T03:18:55;2.25;;;1.55;;
16385;SDS011;8302;51.154;4.456;2023-05-10T03:21:24;1.17;;;0.93;;
16385;SDS011;8302;51.154;4.456;2023-05-10T03:23:55;1.55;;;1.25;;
16385;SDS011;8302;51.154;4.456;2023-05-10T03:26:26;0.70;;;0.63;;
16385;SDS011;8302;51.154;4.456;2023-05-10T03:29:16;2.67;;;1.65;;
16385;SDS011;8302;51.154;4.456;2023-05-10T03:31:44;3.88;;;2.08;;
16385;SDS011;8302;51.154;4.456;2023-05-10T03:34:13;1.30;;;1.20;;
16385;SDS011;8302;51.154;4.456;2023-05-10T03:36:41;2.25;;;1.13;;
16385;SDS011;8302;51.154;4.456;2023-05-10T03:39:09;3.13;;;1.30;;
16385;SDS011;8302;51.154;4.456;2023-05-10T03:41:39;7.57;;;2.63;;
16385;SDS011;8302;51.154;4.456;2023-05-10T03:44:08;3.13;;;2.47;;
16385;SDS011;8302;51.154;4.456;2023-05-10T03:46:35;1.25;;;1.15;;
16385;SDS011;8302;51.154;4.456;2023-05-10T03:49:03;3.38;;;1.65;;
16385;SDS011;8302;51.154;4.456;2023-05-10T03:51:31;2.88;;;1.85;;
16385;SDS011;8302;51.154;4.456;2023-05-10T03:53:59;4.15;;;2.13;;
16385;SDS011;8302;51.154;4.456;2023-05-10T03:56:27;2.40;;;2.20;;
16385;SDS011;8302;51.154;4.456;2023-05-10T03:58:56;2.38;;;2.17;;
16385;SDS011;8302;51.154;4.456;2023-05-10T04:01:24;2.47;;;1.13;;
16385;SDS011;8302;51.154;4.456;2023-05-10T04:03:51;1.52;;;0.95;;
16385;SDS011;8302;51.154;4.456;2023-05-10T04:06:19;1.95;;;1.70;;
16385;SDS011;8302;51.154;4.456;2023-05-10T04:08:47;2.17;;;1.60;;
16385;SDS011;8302;51.154;4.456;2023-05-10T04:11:15;0.50;;;0.50;;
16385;SDS011;8302;51.154;4.456;2023-05-10T04:13:43;1.70;;;1.60;;
16385;SDS011;8302;51.154;4.456;2023-05-10T04:16:12;3.53;;;1.45;;
16385;SDS011;8302;51.154;4.456;2023-05-10T04:18:39;2.45;;;1.30;;
16385;SDS011;8302;51.154;4.456;2023-05-10T04:21:10;4.57;;;2.13;;
16385;SDS011;8302;51.154;4.456;2023-05-10T04:23:38;3.33;;;1.70;;
16385;SDS011;8302;51.154;4.456;2023-05-10T04:26:06;2.80;;;1.58;;
16385;SDS011;8302;51.154;4.456;2023-05-10T04:28:34;2.78;;;1.30;;
16385;SDS011;8302;51.154;4.456;2023-05-10T04:31:02;1.42;;;1.23;;
16385;SDS011;8302;51.154;4.456;2023-05-10T04:33:31;5.47;;;2.22;;
16385;SDS011;8302;51.154;4.456;2023-05-10T04:36:00;4.68;;;1.40;;
16385;SDS011;8302;51.154;4.456;2023-05-10T04:38:28;2.72;;;1.90;;
16385;SDS011;8302;51.154;4.456;2023-05-10T04:41:03;2.55;;;1.55;;
16385;SDS011;8302;51.154;4.456;2023-05-10T04:43:31;4.55;;;2.30;;
16385;SDS011;8302;51.154;4.456;2023-05-10T04:45:58;5.30;;;2.22;;
16385;SDS011;8302;51.154;4.456;2023-05-10T04:48:26;3.28;;;2.50;;
16385;SDS011;8302;51.154;4.456;2023-05-10T04:50:55;3.35;;;2.50;;
16385;SDS011;8302;51.154;4.456;2023-05-10T04:53:23;5.82;;;2.42;;
16385;SDS011;8302;51.154;4.456;2023-05-10T04:55:51;3.97;;;1.88;;
16385;SDS011;8302;51.154;4.456;2023-05-10T04:58:18;1.38;;;1.10;;
16385;SDS011;8302;51.154;4.456;2023-05-10T05:00:46;5.05;;;2.22;;
16385;SDS011;8302;51.154;4.456;2023-05-10T05:03:14;7.43;;;3.33;;
16385;SDS011;8302;51.154;4.456;2023-05-10T05:05:42;3.05;;;2.40;;
16385;SDS011;8302;51.154;4.456;2023-05-10T05:08:12;4.85;;;2.33;;
16385;SDS011;8302;51.154;4.456;2023-05-10T05:10:40;3.55;;;2.03;;
16385;SDS011;8302;51.154;4.456;2023-05-10T05:13:07;4.47;;;2.45;;
16385;SDS011;8302;51.154;4.456;2023-05-10T05:15:35;5.28;;;2.30;;
16385;SDS011;8302;51.154;4.456;2023-05-10T05:18:03;2.47;;;2.00;;
16385;SDS011;8302;51.154;4.456;2023-05-10T05:20:31;2.33;;;1.88;;
16385;SDS011;8302;51.154;4.456;2023-05-10T05:22:59;2.08;;;1.42;;
16385;SDS011;8302;51.154;4.456;2023-05-10T05:25:28;1.58;;;1.42;;
16385;SDS011;8302;51.154;4.456;2023-05-10T05:27:56;4.10;;;1.98;;
16385;SDS011;8302;51.154;4.456;2023-05-10T05:30:23;3.45;;;2.55;;
16385;SDS011;8302;51.154;4.456;2023-05-10T05:32:51;3.58;;;2.30;;
16385;SDS011;8302;51.154;4.456;2023-05-10T05:35:19;1.23;;;1.05;;
16385;SDS011;8302;51.154;4.456;2023-05-10T05:37:47;1.90;;;1.52;;
16385;SDS011;8302;51.154;4.456;2023-05-10T05:40:14;2.15;;;1.58;;
16385;SDS011;8302;51.154;4.456;2023-05-10T05:42:44;2.80;;;2.00;;
16385;SDS011;8302;51.154;4.456;2023-05-10T05:45:11;2.47;;;1.73;;
16385;SDS011;8302;51.154;4.456;2023-05-10T05:47:40;4.43;;;1.73;;
16385;SDS011;8302;51.154;4.456;2023-05-10T05:50:09;2.53;;;1.73;;
16385;SDS011;8302;51.154;4.456;2023-05-10T05:52:37;2.63;;;2.17;;
16385;SDS011;8302;51.154;4.456;2023-05-10T05:55:04;3.28;;;2.08;;
16385;SDS011;8302;51.154;4.456;2023-05-10T05:57:32;2.28;;;1.25;;
16385;SDS011;8302;51.154;4.456;2023-05-10T06:00:01;3.78;;;2.60;;
16385;SDS011;8302;51.154;4.456;2023-05-10T06:02:37;2.25;;;1.75;;
16385;SDS011;8302;51.154;4.456;2023-05-10T06:05:06;3.17;;;2.03;;
16385;SDS011;8302;51.154;4.456;2023-05-10T06:07:34;4.18;;;2.45;;
16385;SDS011;8302;51.154;4.456;2023-05-10T06:10:01;3.17;;;2.10;;
16385;SDS011;8302;51.154;4.456;2023-05-10T06:12:29;3.47;;;2.13;;
16385;SDS011;8302;51.154;4.456;2023-05-10T06:14:57;4.10;;;2.05;;
16385;SDS011;8302;51.154;4.456;2023-05-10T06:17:26;5.70;;;2.63;;
16385;SDS011;8302;51.154;4.456;2023-05-10T06:19:54;2.80;;;1.77;;
16385;SDS011;8302;51.154;4.456;2023-05-10T06:22:21;5.10;;;2.35;;
16385;SDS011;8302;51.154;4.456;2023-05-10T06:24:49;3.88;;;2.53;;
16385;SDS011;8302;51.154;4.456;2023-05-10T06:27:17;6.30;;;2.10;;
16385;SDS011;8302;51.154;4.456;2023-05-10T06:29:45;2.88;;;2.45;;
16385;SDS011;8302;51.154;4.456;2023-05-10T06:32:14;2.83;;;1.33;;
16385;SDS011;8302;51.154;4.456;2023-05-10T06:34:43;5.30;;;3.30;;
16385;SDS011;8302;51.154;4.456;2023-05-10T06:37:11;4.28;;;2.90;;
16385;SDS011;8302;51.154;4.456;2023-05-10T06:39:38;4.63;;;3.17;;
16385;SDS011;8302;51.154;4.456;2023-05-10T06:42:06;8.77;;;2.75;;
16385;SDS011;8302;51.154;4.456;2023-05-10T06:44:34;7.53;;;2.47;;
16385;SDS011;8302;51.154;4.456;2023-05-10T06:47:02;4.25;;;2.38;;
16385;SDS011;8302;51.154;4.456;2023-05-10T06:49:30;3.17;;;1.95;;
16385;SDS011;8302;51.154;4.456;2023-05-10T06:51:59;2.35;;;1.17;;
16385;SDS011;8302;51.154;4.456;2023-05-10T06:54:26;4.40;;;2.25;;
16385;SDS011;8302;51.154;4.456;2023-05-10T06:56:54;2.10;;;1.73;;
16385;SDS011;8302;51.154;4.456;2023-05-10T06:59:22;2.28;;;1.50;;
16385;SDS011;8302;51.154;4.456;2023-05-10T07:01:50;7.00;;;3.15;;
16385;SDS011;8302;51.154;4.456;2023-05-10T07:04:18;3.90;;;2.22;;
16385;SDS011;8302;51.154;4.456;2023-05-10T07:06:45;5.75;;;3.28;;
16385;SDS011;8302;51.154;4.456;2023-05-10T07:09:15;2.95;;;1.85;;
16385;SDS011;8302;51.154;4.456;2023-05-10T07:11:43;4.20;;;2.20;;
16385;SDS011;8302;51.154;4.456;2023-05-10T07:14:10;2.90;;;2.28;;
16385;SDS011;8302;51.154;4.456;2023-05-10T07:16:38;8.43;;;2.95;;
16385;SDS011;8302;51.154;4.456;2023-05-10T07:19:06;2.78;;;1.90;;
16385;SDS011;8302;51.154;4.456;2023-05-10T07:21:34;4.35;;;2.58;;
16385;SDS011;8302;51.154;4.456;2023-05-10T07:24:02;3.00;;;1.85;;
16385;SDS011;8302;51.154;4.456;2023-05-10T07:26:31;2.90;;;1.75;;
16385;SDS011;8302;51.154;4.456;2023-05-10T07:28:59;3.50;;;2.13;;
16385;SDS011;8302;51.154;4.456;2023-05-10T07:31:27;3.40;;;2.28;;
16385;SDS011;8302;51.154;4.456;2023-05-10T07:33:55;3.65;;;1.73;;
16385;SDS011;8302;51.154;4.456;2023-05-10T07:36:22;2.35;;;2.00;;
16385;SDS011;8302;51.154;4.456;2023-05-10T07:38:50;6.05;;;2.90;;
16385;SDS011;8302;51.154;4.456;2023-05-10T07:41:18;2.80;;;1.63;;
16385;SDS011;8302;51.154;4.456;2023-05-10T07:43:48;5.60;;;2.58;;
16385;SDS011;8302;51.154;4.456;2023-05-10T07:46:16;1.88;;;1.60;;
16385;SDS011;8302;51.154;4.456;2023-05-10T07:48:45;4.60;;;2.40;;
16385;SDS011;8302;51.154;4.456;2023-05-10T07:51:13;6.00;;;3.38;;
16385;SDS011;8302;51.154;4.456;2023-05-10T07:53:41;3.08;;;1.90;;
16385;SDS011;8302;51.154;4.456;2023-05-10T07:56:21;6.22;;;3.28;;
16385;SDS011;8302;51.154;4.456;2023-05-10T07:58:51;5.10;;;2.72;;
16385;SDS011;8302;51.154;4.456;2023-05-10T08:01:19;3.22;;;2.10;;
16385;SDS011;8302;51.154;4.456;2023-05-10T08:03:47;2.83;;;1.98;;
16385;SDS011;8302;51.154;4.456;2023-05-10T08:06:15;3.70;;;1.60;;
16385;SDS011;8302;51.154;4.456;2023-05-10T08:08:43;3.58;;;2.60;;
16385;SDS011;8302;51.154;4.456;2023-05-10T08:11:16;4.88;;;1.73;;
16385;SDS011;8302;51.154;4.456;2023-05-10T08:13:43;7.53;;;3.20;;
16385;SDS011;8302;51.154;4.456;2023-05-10T08:16:13;3.15;;;1.88;;
16385;SDS011;8302;51.154;4.456;2023-05-10T08:18:40;6.65;;;2.75;;
16385;SDS011;8302;51.154;4.456;2023-05-10T08:21:08;3.13;;;2.05;;
16385;SDS011;8302;51.154;4.456;2023-05-10T08:23:37;1.60;;;1.42;;
16385;SDS011;8302;51.154;4.456;2023-05-10T08:26:05;2.88;;;2.53;;
16385;SDS011;8302;51.154;4.456;2023-05-10T08:28:33;4.18;;;2.45;;
16385;SDS011;8302;51.154;4.456;2023-05-10T08:31:00;4.65;;;2.63;;
16385;SDS011;8302;51.154;4.456;2023-05-10T08:33:29;4.45;;;2.60;;
16385;SDS011;8302;51.154;4.456;2023-05-10T08:35:57;4.38;;;2.55;;
16385;SDS011;8302;51.154;4.456;2023-05-10T08:38:25;5.20;;;3.40;;
16385;SDS011;8302;51.154;4.456;2023-05-10T08:40:53;6.97;;;2.90;;
16385;SDS011;8302;51.154;4.456;2023-05-10T08:43:22;2.10;;;1.77;;
16385;SDS011;8302;51.154;4.456;2023-05-10T08:45:53;3.05;;;2.30;;
16385;SDS011;8302;51.154;4.456;2023-05-10T08:48:22;5.43;;;2.95;;
16385;SDS011;8302;51.154;4.456;2023-05-10T08:50:52;2.65;;;1.98;;
16385;SDS011;8302;51.154;4.456;2023-05-10T08:53:21;2.72;;;1.85;;
16385;SDS011;8302;51.154;4.456;2023-05-10T08:55:51;2.95;;;1.73;;
16385;SDS011;8302;51.154;4.456;2023-05-10T08:58:19;7.18;;;3.33;;
16385;SDS011;8302;51.154;4.456;2023-05-10T09:00:48;2.33;;;1.67;;
16385;SDS011;8302;51.154;4.456;2023-05-10T09:03:15;2.80;;;1.67;;
16385;SDS011;8302;51.154;4.456;2023-05-10T09:05:44;6.00;;;2.80;;
16385;SDS011;8302;51.154;4.456;2023-05-10T09:08:13;2.97;;;2.45;;
16385;SDS011;8302;51.154;4.456;2023-05-10T09:10:42;4.05;;;2.20;;
16385;SDS011;8302;51.154;4.456;2023-05-10T09:13:10;3.10;;;1.95;;
16385;SDS011;8302;51.154;4.456;2023-05-10T09:15:38;2.10;;;1.35;;
16385;SDS011;8302;51.154;4.456;2023-05-10T09:18:06;4.45;;;2.72;;
16385;SDS011;8302;51.154;4.456;2023-05-10T09:20:34;2.30;;;1.73;;
16385;SDS011;8302;51.154;4.456;2023-05-10T09:23:01;4.15;;;2.38;;
16385;SDS011;8302;51.154;4.456;2023-05-10T09:25:31;7.43;;;3.88;;
16385;SDS011;8302;51.154;4.456;2023-05-10T09:27:59;3.22;;;1.92;;
16385;SDS011;8302;51.154;4.456;2023-05-10T09:30:28;6.75;;;3.17;;
16385;SDS011;8302;51.154;4.456;2023-05-10T09:32:56;4.32;;;2.67;;
16385;SDS011;8302;51.154;4.456;2023-05-10T09:35:25;5.88;;;3.45;;
16385;SDS011;8302;51.154;4.456;2023-05-10T09:37:55;6.55;;;3.40;;
16385;SDS011;8302;51.154;4.456;2023-05-10T09:40:24;3.15;;;2.10;;
16385;SDS011;8302;51.154;4.456;2023-05-10T09:42:54;3.65;;;1.88;;
16385;SDS011;8302;51.154;4.456;2023-05-10T09:45:22;6.15;;;3.55;;
16385;SDS011;8302;51.154;4.456;2023-05-10T09:47:50;5.20;;;3.08;;
16385;SDS011;8302;51.154;4.456;2023-05-10T09:50:18;5.50;;;3.05;;
16385;SDS011;8302;51.154;4.456;2023-05-10T09:52:48;5.70;;;3.35;;
16385;SDS011;8302;51.154;4.456;2023-05-10T09:55:15;4.85;;;3.05;;
16385;SDS011;8302;51.154;4.456;2023-05-10T09:57:43;5.47;;;2.80;;
16385;SDS011;8302;51.154;4.456;2023-05-10T10:00:14;3.83;;;1.88;;
16385;SDS011;8302;51.154;4.456;2023-05-10T10:02:44;7.55;;;3.75;;
16385;SDS011;8302;51.154;4.456;2023-05-10T10:05:12;5.28;;;2.42;;
16385;SDS011;8302;51.154;4.456;2023-05-10T10:07:40;2.22;;;1.48;;
16385;SDS011;8302;51.154;4.456;2023-05-10T10:10:08;3.10;;;2.03;;
16385;SDS011;8302;51.154;4.456;2023-05-10T10:12:39;4.13;;;1.88;;
16385;SDS011;8302;51.154;4.456;2023-05-10T10:15:07;3.65;;;2.60;;
16385;SDS011;8302;51.154;4.456;2023-05-10T10:17:36;4.40;;;2.95;;
16385;SDS011;8302;51.154;4.456;2023-05-10T10:20:06;7.55;;;3.72;;
16385;SDS011;8302;51.154;4.456;2023-05-10T10:22:37;6.60;;;3.05;;
16385;SDS011;8302;51.154;4.456;2023-05-10T10:25:05;5.22;;;2.42;;
16385;SDS011;8302;51.154;4.456;2023-05-10T10:27:35;6.93;;;2.83;;
16385;SDS011;8302;51.154;4.456;2023-05-10T10:30:10;3.75;;;2.63;;
16385;SDS011;8302;51.154;4.456;2023-05-10T10:32:47;3.75;;;3.13;;
16385;SDS011;8302;51.154;4.456;2023-05-10T10:35:17;5.53;;;3.15;;
16385;SDS011;8302;51.154;4.456;2023-05-10T10:37:45;5.15;;;2.67;;
16385;SDS011;8302;51.154;4.456;2023-05-10T10:40:23;3.83;;;2.80;;
16385;SDS011;8302;51.154;4.456;2023-05-10T10:42:51;5.68;;;3.15;;
16385;SDS011;8302;51.154;4.456;2023-05-10T10:45:20;3.88;;;2.30;;
16385;SDS011;8302;51.154;4.456;2023-05-10T10:47:50;4.07;;;1.85;;
16385;SDS011;8302;51.154;4.456;2023-05-10T10:50:20;3.50;;;2.50;;
16385;SDS011;8302;51.154;4.456;2023-05-10T10:52:48;5.30;;;3.22;;
16385;SDS011;8302;51.154;4.456;2023-05-10T10:55:18;3.97;;;2.10;;
16385;SDS011;8302;51.154;4.456;2023-05-10T10:57:49;5.30;;;2.97;;
16385;SDS011;8302;51.154;4.456;2023-05-10T11:00:27;5.20;;;2.92;;
16385;SDS011;8302;51.154;4.456;2023-05-10T11:02:57;6.57;;;2.58;;
16385;SDS011;8302;51.154;4.456;2023-05-10T11:05:33;4.22;;;1.85;;
16385;SDS011;8302;51.154;4.456;2023-05-10T11:08:06;2.45;;;1.92;;
16385;SDS011;8302;51.154;4.456;2023-05-10T11:10:34;3.42;;;2.45;;
16385;SDS011;8302;51.154;4.456;2023-05-10T11:13:02;3.75;;;2.13;;
16385;SDS011;8302;51.154;4.456;2023-05-10T11:15:32;3.25;;;1.77;;
16385;SDS011;8302;51.154;4.456;2023-05-10T11:18:01;4.32;;;2.10;;
16385;SDS011;8302;51.154;4.456;2023-05-10T11:20:43;4.75;;;3.00;;
16385;SDS011;8302;51.154;4.456;2023-05-10T11:23:13;6.05;;;2.83;;
16385;SDS011;8302;51.154;4.456;2023-05-10T11:25:44;4.10;;;2.58;;
16385;SDS011;8302;51.154;4.456;2023-05-10T11:28:12;5.15;;;2.53;;
16385;SDS011;8302;51.154;4.456;2023-05-10T11:30:40;2.03;;;1.27;;
16385;SDS011;8302;51.154;4.456;2023-05-10T11:33:14;2.78;;;2.10;;
16385;SDS011;8302;51.154;4.456;2023-05-10T11:35:42;4.80;;;2.25;;
16385;SDS011;8302;51.154;4.456;2023-05-10T11:38:10;1.17;;;1.05;;
16385;SDS011;8302;51.154;4.456;2023-05-10T11:40:38;5.07;;;2.42;;
16385;SDS011;8302;51.154;4.456;2023-05-10T11:43:06;1.80;;;1.65;;
16385;SDS011;8302;51.154;4.456;2023-05-10T11:45:35;4.82;;;2.30;;
16385;SDS011;8302;51.154;4.456;2023-05-10T11:48:03;2.45;;;1.65;;
16385;SDS011;8302;51.154;4.456;2023-05-10T11:50:33;2.25;;;1.83;;
16385;SDS011;8302;51.154;4.456;2023-05-10T11:53:01;3.40;;;1.83;;
16385;SDS011;8302;51.154;4.456;2023-05-10T11:55:29;2.38;;;1.45;;
16385;SDS011;8302;51.154;4.456;2023-05-10T11:58:00;3.30;;;2.38;;
16385;SDS011;8302;51.154;4.456;2023-05-10T12:00:28;6.25;;;2.53;;
16385;SDS011;8302;51.154;4.456;2023-05-10T12:02:56;3.40;;;2.15;;
16385;SDS011;8302;51.154;4.456;2023-05-10T12:05:25;4.40;;;2.38;;
16385;SDS011;8302;51.154;4.456;2023-05-10T12:07:54;6.57;;;2.13;;
16385;SDS011;8302;51.154;4.456;2023-05-10T12:10:37;1.55;;;1.45;;
16385;SDS011;8302;51.154;4.456;2023-05-10T12:13:05;1.98;;;1.77;;
16385;SDS011;8302;51.154;4.456;2023-05-10T12:15:33;2.05;;;1.83;;
16385;SDS011;8302;51.154;4.456;2023-05-10T12:18:01;3.53;;;2.30;;
16385;SDS011;8302;51.154;4.456;2023-05-10T12:20:29;3.08;;;2.03;;
16385;SDS011;8302;51.154;4.456;2023-05-10T12:22:58;2.92;;;1.90;;
16385;SDS011;8302;51.154;4.456;2023-05-10T12:25:29;2.78;;;2.25;;
16385;SDS011;8302;51.154;4.456;2023-05-10T12:27:57;6.47;;;1.95;;
16385;SDS011;8302;51.154;4.456;2023-05-10T12:30:27;2.00;;;1.73;;
16385;SDS011;8302;51.154;4.456;2023-05-10T12:32:59;2.97;;;2.15;;
16385;SDS011;8302;51.154;4.456;2023-05-10T12:35:29;4.90;;;2.88;;
16385;SDS011;8302;51.154;4.456;2023-05-10T12:37:59;2.22;;;1.33;;
16385;SDS011;8302;51.154;4.456;2023-05-10T12:40:26;2.50;;;1.63;;
16385;SDS011;8302;51.154;4.456;2023-05-10T12:42:55;4.90;;;1.88;;
16385;SDS011;8302;51.154;4.456;2023-05-10T12:45:22;2.65;;;1.30;;
16385;SDS011;8302;51.154;4.456;2023-05-10T12:47:50;3.40;;;1.63;;
16385;SDS011;8302;51.154;4.456;2023-05-10T12:50:18;5.07;;;1.80;;
16385;SDS011;8302;51.154;4.456;2023-05-10T12:52:45;6.88;;;1.95;;
16385;SDS011;8302;51.154;4.456;2023-05-10T12:55:14;4.72;;;2.08;;
16385;SDS011;8302;51.154;4.456;2023-05-10T12:57:42;3.60;;;2.25;;
16385;SDS011;8302;51.154;4.456;2023-05-10T13:00:10;2.72;;;1.83;;
16385;SDS011;8302;51.154;4.456;2023-05-10T13:02:38;3.22;;;2.17;;
16385;SDS011;8302;51.154;4.456;2023-05-10T13:05:06;2.33;;;1.75;;
16385;SDS011;8302;51.154;4.456;2023-05-10T13:07:34;1.58;;;1.45;;
16385;SDS011;8302;51.154;4.456;2023-05-10T13:10:01;3.70;;;1.80;;
16385;SDS011;8302;51.154;4.456;2023-05-10T13:12:30;2.83;;;1.48;;
16385;SDS011;8302;51.154;4.456;2023-05-10T13:14:58;3.17;;;1.33;;
16385;SDS011;8302;51.154;4.456;2023-05-10T13:17:26;3.65;;;1.85;;
16385;SDS011;8302;51.154;4.456;2023-05-10T13:19:54;2.00;;;1.13;;
16385;SDS011;8302;51.154;4.456;2023-05-10T13:22:21;1.92;;;1.60;;
16385;SDS011;8302;51.154;4.456;2023-05-10T13:25:05;3.60;;;2.10;;
16385;SDS011;8302;51.154;4.456;2023-05-10T13:27:34;2.95;;;1.40;;
16385;SDS011;8302;51.154;4.456;2023-05-10T13:30:01;3.63;;;1.52;;
16385;SDS011;8302;51.154;4.456;2023-05-10T13:32:29;1.48;;;1.15;;
16385;SDS011;8302;51.154;4.456;2023-05-10T13:34:57;3.13;;;1.92;;
16385;SDS011;8302;51.154;4.456;2023-05-10T13:37:24;1.90;;;1.40;;
16385;SDS011;8302;51.154;4.456;2023-05-10T13:39:52;4.30;;;1.60;;
16385;SDS011;8302;51.154;4.456;2023-05-10T13:42:21;2.13;;;1.73;;
16385;SDS011;8302;51.154;4.456;2023-05-10T13:44:50;1.45;;;1.20;;
16385;SDS011;8302;51.154;4.456;2023-05-10T13:47:18;1.10;;;0.90;;
16385;SDS011;8302;51.154;4.456;2023-05-10T13:49:48;2.50;;;1.50;;
16385;SDS011;8302;51.154;4.456;2023-05-10T13:52:15;1.38;;;1.23;;
16385;SDS011;8302;51.154;4.456;2023-05-10T13:54:43;4.00;;;1.55;;
16385;SDS011;8302;51.154;4.456;2023-05-10T13:57:11;1.17;;;1.08;;
16385;SDS011;8302;51.154;4.456;2023-05-10T13:59:40;1.77;;;1.30;;
16385;SDS011;8302;51.154;4.456;2023-05-10T14:02:09;2.60;;;1.70;;
16385;SDS011;8302;51.154;4.456;2023-05-10T14:04:39;1.38;;;1.10;;
16385;SDS011;8302;51.154;4.456;2023-05-10T14:07:07;1.02;;;0.93;;
16385;SDS011;8302;51.154;4.456;2023-05-10T14:09:35;0.77;;;0.55;;
16385;SDS011;8302;51.154;4.456;2023-05-10T14:12:02;2.22;;;1.20;;
16385;SDS011;8302;51.154;4.456;2023-05-10T14:14:30;2.20;;;1.38;;
16385;SDS011;8302;51.154;4.456;2023-05-10T14:16:58;1.33;;;0.82;;
16385;SDS011;8302;51.154;4.456;2023-05-10T14:19:27;4.80;;;0.90;;
16385;SDS011;8302;51.154;4.456;2023-05-10T14:21:57;1.65;;;0.98;;
16385;SDS011;8302;51.154;4.456;2023-05-10T14:24:24;2.67;;;1.15;;
16385;SDS011;8302;51.154;4.456;2023-05-10T14:26:52;2.58;;;1.48;;
16385;SDS011;8302;51.154;4.456;2023-05-10T14:29:20;2.05;;;1.00;;
16385;SDS011;8302;51.154;4.456;2023-05-10T14:31:48;2.38;;;1.67;;
16385;SDS011;8302;51.154;4.456;2023-05-10T14:34:16;1.42;;;0.93;;
16385;SDS011;8302;51.154;4.456;2023-05-10T14:36:45;0.93;;;0.63;;
16385;SDS011;8302;51.154;4.456;2023-05-10T14:39:13;2.28;;;0.82;;
16385;SDS011;8302;51.154;4.456;2023-05-10T14:41:40;1.05;;;0.80;;
16385;SDS011;8302;51.154;4.456;2023-05-10T14:44:09;2.90;;;1.40;;
16385;SDS011;8302;51.154;4.456;2023-05-10T14:46:37;1.15;;;0.93;;
16385;SDS011;8302;51.154;4.456;2023-05-10T14:49:05;2.58;;;1.42;;
16385;SDS011;8302;51.154;4.456;2023-05-10T14:51:33;3.55;;;1.20;;
16385;SDS011;8302;51.154;4.456;2023-05-10T14:54:04;1.55;;;1.33;;
16385;SDS011;8302;51.154;4.456;2023-05-10T14:56:32;2.92;;;1.45;;
16385;SDS011;8302;51.154;4.456;2023-05-10T14:58:59;2.72;;;1.67;;
16385;SDS011;8302;51.154;4.456;2023-05-10T15:01:28;1.70;;;0.98;;
16385;SDS011;8302;51.154;4.456;2023-05-10T15:03:56;2.53;;;1.48;;
16385;SDS011;8302;51.154;4.456;2023-05-10T15:06:30;4.28;;;1.75;;
16385;SDS011;8302;51.154;4.456;2023-05-10T15:08:57;2.63;;;1.20;;
16385;SDS011;8302;51.154;4.456;2023-05-10T15:11:26;1.85;;;1.38;;